McNeil, Texas
Current Conditions -  °F | °C
As of 3:51 AM on Monday 22 Dec 2014 (Local Time) from KATT Reporting Station
Overcast Overcast  
Wind Chill: 57°   Ceiling: 1800
Heat Index: 57°   Visibility: 10mi
Dew Point: 54°   Wind: 5mph
Humidity: 89%   Direction: NA
Pressure: 29.76"   Gusts: NA
Location:  30.45°N, 97.72°W
Report Text: KATT 220951Z AUTO VRB04KT 10SM OVC018 14/12 A2976 RMK AO2 SLP075 T01390122
Loading
Personal Weather Stations






























Interactive Weather Map New forecast layout! Learn more

10-Day Weather Forecast

Advertisements
Track Severe Weather on mobile